createdAt,value
2018-04-26T00:02:19.799Z,92.00
2018-04-26T00:04:47.386Z,92.10
2018-04-26T00:07:14.945Z,92.30
2018-04-26T00:09:42.516Z,92.30
2018-04-26T00:12:10.846Z,92.60
2018-04-26T00:14:39.231Z,92.70
2018-04-26T00:17:06.825Z,92.70
2018-04-26T00:19:34.433Z,93.00
2018-04-26T00:22:02.043Z,93.00
2018-04-26T00:24:29.641Z,93.20
2018-04-26T00:26:58.037Z,93.40
2018-04-26T00:29:25.680Z,93.70
2018-04-26T00:31:53.974Z,93.80
2018-04-26T00:34:22.313Z,94.00
2018-04-26T00:36:49.884Z,94.00
2018-04-26T00:39:17.519Z,94.10
2018-04-26T00:41:45.104Z,94.10
2018-04-26T00:44:12.676Z,94.20
2018-04-26T00:46:40.344Z,94.40
2018-04-26T00:49:07.902Z,94.30
2018-04-26T00:51:47.358Z,94.40
2018-04-26T00:54:14.928Z,94.90
2018-04-26T00:56:42.527Z,95.10
2018-04-26T00:59:10.131Z,95.80
2018-04-26T01:01:37.715Z,96.40
2018-04-26T01:04:05.321Z,96.80
2018-04-26T01:06:32.899Z,98.20
2018-04-26T01:09:00.478Z,98.90
2018-04-26T01:11:28.063Z,99.70
2018-04-26T01:13:55.889Z,99.90
2018-04-26T01:16:23.486Z,99.90
2018-04-26T01:18:51.070Z,99.90
2018-04-26T01:21:18.690Z,99.90
2018-04-26T01:23:46.274Z,99.90
2018-04-26T01:26:13.886Z,99.90
2018-04-26T01:28:41.454Z,99.90
2018-04-26T01:31:09.060Z,99.90
2018-04-26T01:33:36.637Z,99.90
2018-04-26T01:36:04.238Z,99.90
2018-04-26T01:38:31.836Z,99.90
2018-04-26T01:40:59.435Z,99.90
2018-04-26T01:43:27.008Z,99.90
2018-04-26T01:45:54.585Z,99.90
2018-04-26T01:48:22.180Z,99.90
2018-04-26T01:50:50.517Z,99.90
2018-04-26T01:53:18.091Z,99.90
2018-04-26T01:55:45.717Z,99.90
2018-04-26T01:58:13.416Z,99.90
2018-04-26T02:00:40.982Z,99.90
2018-04-26T02:03:08.532Z,99.90
2018-04-26T02:05:36.106Z,99.90
2018-04-26T02:08:03.688Z,99.90
2018-04-26T02:10:31.272Z,99.90
2018-04-26T02:12:59.547Z,99.90
2018-04-26T02:15:27.199Z,99.90
2018-04-26T02:17:54.830Z,99.90
2018-04-26T02:20:22.417Z,99.90
2018-04-26T02:22:50.749Z,99.90
2018-04-26T02:25:19.148Z,99.90
2018-04-26T02:27:46.741Z,99.90
2018-04-26T02:30:15.059Z,99.90
2018-04-26T02:32:42.631Z,99.90
2018-04-26T02:35:10.219Z,99.90
2018-04-26T02:37:37.777Z,99.90
2018-04-26T02:40:06.134Z,99.90
2018-04-26T02:42:33.720Z,99.90
2018-04-26T02:45:02.100Z,99.90
2018-04-26T02:47:30.459Z,99.90
2018-04-26T02:49:58.064Z,99.90
2018-04-26T02:52:25.669Z,99.90
2018-04-26T02:54:53.269Z,99.90
2018-04-26T02:57:20.917Z,99.90
2018-04-26T02:59:48.510Z,99.90
2018-04-26T03:02:16.105Z,99.90
2018-04-26T03:04:44.292Z,99.90
2018-04-26T03:07:11.864Z,99.90
2018-04-26T03:09:39.455Z,99.90
2018-04-26T03:12:07.063Z,99.90
2018-04-26T03:14:34.620Z,99.90
2018-04-26T03:17:03.003Z,99.90
2018-04-26T03:19:31.342Z,99.90
2018-04-26T03:21:58.927Z,99.90
2018-04-26T03:24:26.493Z,99.90
2018-04-26T03:26:54.046Z,99.90
2018-04-26T03:29:21.629Z,99.90
2018-04-26T03:31:50.929Z,99.90
2018-04-26T03:34:19.315Z,99.90
2018-04-26T03:36:46.916Z,99.90
2018-04-26T03:39:14.508Z,99.90
2018-04-26T03:41:42.093Z,99.90
2018-04-26T03:44:09.679Z,99.90
2018-04-26T03:46:37.265Z,99.90
2018-04-26T03:49:04.842Z,99.90
2018-04-26T03:51:32.444Z,99.90
2018-04-26T03:54:00.017Z,99.90
2018-04-26T03:56:27.608Z,99.90
2018-04-26T03:58:55.200Z,99.90
2018-04-26T04:01:34.652Z,99.90
2018-04-26T04:04:41.063Z,99.90
2018-04-26T04:07:08.765Z,99.90
2018-04-26T04:09:36.367Z,99.90
2018-04-26T04:12:03.929Z,99.90
2018-04-26T04:14:31.501Z,99.90
2018-04-26T04:16:59.083Z,99.90
2018-04-26T04:19:26.683Z,99.90
2018-04-26T04:21:54.260Z,99.90
2018-04-26T04:24:21.844Z,99.90
2018-04-26T04:26:49.449Z,99.90
2018-04-26T04:29:17.798Z,99.90
2018-04-26T04:31:45.369Z,99.90
2018-04-26T04:34:12.957Z,99.90
2018-04-26T04:36:41.300Z,99.90
2018-04-26T04:39:08.900Z,99.90
2018-04-26T04:41:37.259Z,99.90
2018-04-26T04:44:04.848Z,99.90
2018-04-26T04:46:32.478Z,99.90
2018-04-26T04:49:00.059Z,99.90
2018-04-26T04:51:27.653Z,99.90
2018-04-26T04:53:55.297Z,99.90
2018-04-26T04:56:22.872Z,99.90
2018-04-26T04:58:50.440Z,99.90
2018-04-26T05:01:18.038Z,99.90
2018-04-26T05:03:45.622Z,99.90
2018-04-26T05:06:13.216Z,99.90
2018-04-26T05:08:40.902Z,99.90
2018-04-26T05:11:08.495Z,99.90
2018-04-26T05:13:36.081Z,99.90
2018-04-26T05:16:03.716Z,99.90
2018-04-26T05:18:32.051Z,99.90
2018-04-26T05:20:59.632Z,99.90
2018-04-26T05:23:27.335Z,99.90
2018-04-26T05:25:54.919Z,99.90
2018-04-26T05:28:22.522Z,99.90
2018-04-26T05:30:50.108Z,99.90
2018-04-26T05:33:17.693Z,99.90
2018-04-26T05:35:45.264Z,99.90
2018-04-26T05:38:13.808Z,99.90
2018-04-26T05:40:41.409Z,99.90
2018-04-26T05:43:09.761Z,99.90
2018-04-26T05:45:37.347Z,99.90
2018-04-26T05:48:05.707Z,99.90
2018-04-26T05:50:33.307Z,99.90
2018-04-26T05:53:00.901Z,99.90
2018-04-26T05:55:28.546Z,99.90
2018-04-26T05:57:56.131Z,99.90
2018-04-26T06:00:23.735Z,99.90
2018-04-26T06:02:51.348Z,99.90
2018-04-26T06:05:18.905Z,99.90
2018-04-26T06:07:46.489Z,99.90
2018-04-26T06:10:14.063Z,99.90
2018-04-26T06:12:41.632Z,99.90
2018-04-26T06:15:09.210Z,99.90
2018-04-26T06:17:37.092Z,99.90
2018-04-26T06:20:04.719Z,99.90
2018-04-26T06:22:32.318Z,99.90
2018-04-26T06:24:59.900Z,99.90
2018-04-26T06:27:27.489Z,99.90
2018-04-26T06:29:55.847Z,99.90
2018-04-26T06:32:23.419Z,99.90
2018-04-26T06:34:51.756Z,99.90
2018-04-26T06:37:19.343Z,99.90
2018-04-26T06:39:46.966Z,99.90
2018-04-26T06:42:14.576Z,99.90
2018-04-26T06:44:42.183Z,99.90
2018-04-26T06:47:09.873Z,99.90
2018-04-26T06:49:37.455Z,99.90
2018-04-26T06:52:05.084Z,99.90
2018-04-26T06:54:33.437Z,99.90
2018-04-26T06:57:01.028Z,99.90
2018-04-26T06:59:29.434Z,99.90
2018-04-26T07:01:57.065Z,99.90
2018-04-26T07:04:24.633Z,99.90
2018-04-26T07:06:52.969Z,99.90
2018-04-26T07:09:20.745Z,99.90
2018-04-26T07:11:48.358Z,99.90
2018-04-26T07:14:15.954Z,99.90
2018-04-26T07:16:43.633Z,99.90
2018-04-26T07:19:11.225Z,99.90
2018-04-26T07:21:38.861Z,99.90
2018-04-26T07:24:06.495Z,99.90
2018-04-26T07:26:34.189Z,99.90
2018-04-26T07:29:01.799Z,99.90
2018-04-26T07:31:29.372Z,99.90
2018-04-26T07:33:56.986Z,99.90
2018-04-26T07:36:24.591Z,99.90
2018-04-26T07:38:52.970Z,99.90
2018-04-26T07:41:20.566Z,99.90
2018-04-26T07:43:49.774Z,99.90
2018-04-26T07:46:17.402Z,99.90
2018-04-26T07:48:45.014Z,99.90
2018-04-26T07:51:12.640Z,99.90
2018-04-26T07:53:41.116Z,99.90
2018-04-26T07:56:08.952Z,99.90
2018-04-26T07:58:36.556Z,99.90
2018-04-26T08:01:04.307Z,99.90
2018-04-26T08:03:31.924Z,99.90
2018-04-26T08:06:00.283Z,99.90
2018-04-26T08:08:27.886Z,99.90
2018-04-26T08:10:55.564Z,99.90
2018-04-26T08:13:23.159Z,99.90
2018-04-26T08:15:50.758Z,99.90
2018-04-26T08:18:19.124Z,99.90
2018-04-26T08:20:46.725Z,99.90
2018-04-26T08:23:14.313Z,99.90
2018-04-26T08:25:41.904Z,99.90
2018-04-26T08:28:09.493Z,99.90
2018-04-26T08:30:37.077Z,99.90
2018-04-26T08:33:05.432Z,99.90
2018-04-26T08:35:32.989Z,99.90
2018-04-26T08:38:00.590Z,99.90
2018-04-26T08:40:28.196Z,99.90
2018-04-26T08:42:55.981Z,99.90
2018-04-26T08:45:23.628Z,99.90
2018-04-26T08:47:51.224Z,99.90
2018-04-26T08:50:18.808Z,99.90
2018-04-26T08:52:47.183Z,99.90
2018-04-26T08:55:15.578Z,99.90
2018-04-26T08:57:43.197Z,99.90
2018-04-26T09:00:10.801Z,99.90
2018-04-26T09:02:38.398Z,99.90
2018-04-26T09:05:05.977Z,99.90
2018-04-26T09:07:33.573Z,99.90
2018-04-26T09:10:01.159Z,99.90
2018-04-26T09:12:28.774Z,99.90
2018-04-26T09:14:56.361Z,99.90
2018-04-26T09:17:23.945Z,99.90
2018-04-26T09:19:52.361Z,99.90
2018-04-26T09:22:20.724Z,99.90
2018-04-26T09:24:48.315Z,99.90
2018-04-26T09:27:15.901Z,99.90
2018-04-26T09:29:43.482Z,99.90
2018-04-26T09:32:11.056Z,99.90
2018-04-26T09:34:38.660Z,99.90
2018-04-26T09:37:07.027Z,99.90
2018-04-26T09:39:34.662Z,99.90
2018-04-26T09:42:02.250Z,99.90
2018-04-26T09:44:29.837Z,99.50
2018-04-26T09:46:58.257Z,99.30
2018-04-26T09:49:25.854Z,99.40
2018-04-26T09:51:53.449Z,97.10
2018-04-26T09:54:21.821Z,96.30
2018-04-26T09:56:49.429Z,96.30
2018-04-26T09:59:17.114Z,95.80
2018-04-26T10:01:44.804Z,97.20
2018-04-26T10:04:14.995Z,96.10
2018-04-26T10:06:48.295Z,95.90
2018-04-26T10:09:15.893Z,95.00
2018-04-26T10:11:43.488Z,96.00
2018-04-26T10:14:11.841Z,94.50
2018-04-26T10:16:39.431Z,94.50
2018-04-26T10:19:10.424Z,94.50
2018-04-26T10:21:38.021Z,94.40
2018-04-26T10:24:05.727Z,94.90
2018-04-26T10:26:33.360Z,93.70
2018-04-26T10:29:00.967Z,92.90
2018-04-26T10:31:28.579Z,92.00
2018-04-26T10:33:56.174Z,92.40
2018-04-26T10:36:23.761Z,94.70
2018-04-26T10:38:51.353Z,96.20
2018-04-26T10:41:18.994Z,97.60
2018-04-26T10:43:46.573Z,97.90
2018-04-26T10:46:14.211Z,99.00
2018-04-26T10:48:41.847Z,98.30
2018-04-26T10:51:09.503Z,97.00
2018-04-26T10:53:37.116Z,98.90
2018-04-26T10:56:04.714Z,99.80
2018-04-26T10:58:32.289Z,99.90
2018-04-26T11:00:59.871Z,99.90
2018-04-26T11:03:27.486Z,97.50
2018-04-26T11:05:55.060Z,97.70
2018-04-26T11:08:22.642Z,97.50
2018-04-26T11:10:50.199Z,96.60
2018-04-26T11:13:17.794Z,95.10
2018-04-26T11:15:45.398Z,94.70
2018-04-26T11:18:13.734Z,96.20
2018-04-26T11:20:41.574Z,96.20
2018-04-26T11:23:09.187Z,96.50
2018-04-26T11:25:37.567Z,95.30
2018-04-26T11:28:06.220Z,95.30
2018-04-26T11:30:33.917Z,95.20
2018-04-26T11:33:01.537Z,94.90
2018-04-26T11:35:29.131Z,94.10
2018-04-26T11:37:56.744Z,92.80
2018-04-26T11:40:24.345Z,91.90
2018-04-26T11:42:51.909Z,91.30
2018-04-26T11:45:19.526Z,91.00
2018-04-26T11:47:47.900Z,90.70
2018-04-26T11:50:15.474Z,90.80
2018-04-26T11:52:43.052Z,91.10
2018-04-26T11:55:11.407Z,92.10
2018-04-26T11:57:39.013Z,92.20
2018-04-26T12:00:06.594Z,89.80
2018-04-26T12:02:34.287Z,89.30
2018-04-26T12:05:01.870Z,90.20
2018-04-26T12:07:29.454Z,90.20
2018-04-26T12:09:57.807Z,87.80
2018-04-26T12:12:25.396Z,87.90
2018-04-26T12:14:53.000Z,86.80
2018-04-26T12:17:20.600Z,87.20
2018-04-26T12:19:48.227Z,85.40
2018-04-26T12:22:15.809Z,78.70
2018-04-26T12:24:43.372Z,82.10
2018-04-26T12:27:10.939Z,78.90
2018-04-26T12:29:38.529Z,78.60
2018-04-26T12:32:06.131Z,78.50
2018-04-26T12:34:33.709Z,76.90
2018-04-26T12:37:01.370Z,77.00
2018-04-26T12:39:28.979Z,77.10
2018-04-26T12:41:56.646Z,76.00
2018-04-26T12:44:24.249Z,76.00
2018-04-26T12:46:51.847Z,75.40
2018-04-26T12:49:19.444Z,78.30
2018-04-26T12:51:47.024Z,78.40
2018-04-26T12:54:14.668Z,80.90
2018-04-26T12:56:42.293Z,79.50
2018-04-26T12:59:09.904Z,77.90
2018-04-26T13:01:37.502Z,74.90
2018-04-26T13:04:05.862Z,73.90
2018-04-26T13:06:33.488Z,73.90
2018-04-26T13:09:01.070Z,74.80
2018-04-26T13:11:28.678Z,70.50
2018-04-26T13:13:57.033Z,67.60
2018-04-26T13:16:24.630Z,67.60
2018-04-26T13:18:52.991Z,70.60
2018-04-26T13:21:20.705Z,70.70
2018-04-26T13:23:48.205Z,73.60
2018-04-26T13:26:15.823Z,68.40
2018-04-26T13:28:43.418Z,72.50
2018-04-26T13:31:11.018Z,70.30
2018-04-26T13:33:38.639Z,67.80
2018-04-26T13:36:06.226Z,69.00
2018-04-26T13:38:33.862Z,68.20
2018-04-26T13:41:01.486Z,65.30
2018-04-26T13:43:29.091Z,63.50
2018-04-26T13:45:56.740Z,64.20
2018-04-26T13:48:25.084Z,62.50
2018-04-26T13:50:53.145Z,63.10
2018-04-26T13:53:20.771Z,61.60
2018-04-26T13:55:49.177Z,63.90
2018-04-26T13:58:16.775Z,63.90
2018-04-26T14:00:44.406Z,63.60
2018-04-26T14:03:11.982Z,62.70
2018-04-26T14:05:39.577Z,65.50
2018-04-26T14:08:07.153Z,62.80
2018-04-26T14:10:34.713Z,65.60
2018-04-26T14:13:02.278Z,63.40
2018-04-26T14:15:29.866Z,63.30
2018-04-26T14:17:58.272Z,62.00
2018-04-26T14:20:25.914Z,62.00
2018-04-26T14:22:53.600Z,61.80
2018-04-26T14:25:21.966Z,62.10
2018-04-26T14:27:49.585Z,62.10
2018-04-26T14:30:17.165Z,60.20
2018-04-26T14:32:44.794Z,61.40
2018-04-26T14:35:12.401Z,61.90
2018-04-26T14:37:40.033Z,63.40
2018-04-26T14:40:08.415Z,63.80
2018-04-26T14:42:36.041Z,63.70
2018-04-26T14:45:04.421Z,62.50
2018-04-26T14:47:32.777Z,63.30
2018-04-26T14:50:00.391Z,63.20
2018-04-26T14:52:28.000Z,61.40
2018-04-26T14:54:55.672Z,62.20
2018-04-26T14:57:23.192Z,62.90
2018-04-26T14:59:50.770Z,61.50
2018-04-26T15:02:18.369Z,62.50
2018-04-26T15:04:45.934Z,63.50
2018-04-26T15:07:13.555Z,61.50
2018-04-26T15:09:41.156Z,62.60
2018-04-26T15:12:08.777Z,63.50
2018-04-26T15:14:36.387Z,61.10
2018-04-26T15:17:04.015Z,60.50
2018-04-26T15:19:31.607Z,61.30
2018-04-26T15:21:59.257Z,59.50
2018-04-26T15:24:26.857Z,60.90
2018-04-26T15:26:54.536Z,59.20
2018-04-26T15:29:22.094Z,59.30
2018-04-26T15:31:49.832Z,58.20
2018-04-26T15:34:17.344Z,57.20
2018-04-26T15:36:44.952Z,58.90
2018-04-26T15:39:12.556Z,59.40
2018-04-26T15:41:40.209Z,57.00
2018-04-26T15:44:07.849Z,56.00
2018-04-26T15:46:35.455Z,51.80
2018-04-26T15:49:03.026Z,52.40
2018-04-26T15:51:30.760Z,53.50
2018-04-26T15:54:25.004Z,53.80
2018-04-26T15:57:04.349Z,52.50
2018-04-26T15:59:43.833Z,53.40
2018-04-26T16:02:29.060Z,52.50
2018-04-26T16:05:14.252Z,53.00
2018-04-26T16:07:59.475Z,53.30
2018-04-26T16:10:57.285Z,53.90
2018-04-26T16:13:42.443Z,55.50
2018-04-26T16:16:27.648Z,53.20
2018-04-26T16:22:29.040Z,53.60
2018-04-26T16:25:08.444Z,55.90
2018-04-26T16:27:47.807Z,57.20
2018-04-26T16:30:27.341Z,58.00
2018-04-26T16:33:06.831Z,58.40
2018-04-26T16:35:46.344Z,57.80
2018-04-26T16:38:26.457Z,56.30
2018-04-26T16:40:54.345Z,56.30
2018-04-26T16:43:21.919Z,57.30
2018-04-26T16:45:49.535Z,56.70
2018-04-26T16:48:17.134Z,57.40
2018-04-26T16:50:44.718Z,57.70
2018-04-26T16:53:12.284Z,58.80
2018-04-26T16:55:39.890Z,59.60
2018-04-26T16:58:07.484Z,60.40
2018-04-26T17:00:35.149Z,60.90
2018-04-26T17:03:03.513Z,60.60
2018-04-26T17:05:31.112Z,60.40
2018-04-26T17:07:59.343Z,60.50
2018-04-26T17:10:26.949Z,60.20
2018-04-26T17:12:54.575Z,61.20
2018-04-26T17:15:22.158Z,62.00
2018-04-26T17:17:49.826Z,63.90
2018-04-26T17:20:17.442Z,62.60
2018-04-26T17:22:45.032Z,62.20
2018-04-26T17:25:12.633Z,63.30
2018-04-26T17:27:40.236Z,61.70
2018-04-26T17:30:07.911Z,62.10
2018-04-26T17:32:36.292Z,62.20
2018-04-26T17:35:03.890Z,62.10
2018-04-26T17:37:31.474Z,62.30
2018-04-26T17:39:59.097Z,62.00
2018-04-26T17:42:27.600Z,63.40
2018-04-26T17:44:55.902Z,63.60
2018-04-26T17:47:23.588Z,63.60
2018-04-26T17:49:52.176Z,65.20
2018-04-26T17:52:19.771Z,65.80
2018-04-26T17:54:47.343Z,66.00
2018-04-26T17:57:15.736Z,66.00
2018-04-26T17:59:44.153Z,68.10
2018-04-26T18:02:11.840Z,68.00
2018-04-26T18:04:39.464Z,67.60
2018-04-26T18:07:07.049Z,67.90
2018-04-26T18:09:34.743Z,68.70
2018-04-26T18:12:03.064Z,70.10
2018-04-26T18:14:31.482Z,71.30
2018-04-26T18:16:59.079Z,71.20
2018-04-26T18:19:26.722Z,71.50
2018-04-26T18:21:54.311Z,73.10
2018-04-26T18:24:21.895Z,70.90
2018-04-26T18:26:49.484Z,71.40
2018-04-26T18:29:17.883Z,71.80
2018-04-26T18:31:45.508Z,71.80
2018-04-26T18:34:13.091Z,73.00
2018-04-26T18:36:41.441Z,73.80
2018-04-26T18:39:09.035Z,73.80
2018-04-26T18:41:37.387Z,73.30
2018-04-26T18:44:04.947Z,73.30
2018-04-26T18:46:32.564Z,73.80
2018-04-26T18:49:00.182Z,75.00
2018-04-26T18:51:27.820Z,75.40
2018-04-26T18:53:55.445Z,77.40
2018-04-26T18:56:23.053Z,79.10
2018-04-26T18:58:50.668Z,78.80
2018-04-26T19:01:19.017Z,78.40
2018-04-26T19:03:46.619Z,78.40
2018-04-26T19:06:14.183Z,78.80
2018-04-26T19:08:42.436Z,79.70
2018-04-26T19:11:10.016Z,78.80
2018-04-26T19:13:37.697Z,80.00
2018-04-26T19:16:06.061Z,79.70
2018-04-26T19:18:33.659Z,79.70
2018-04-26T19:21:02.049Z,79.30
2018-04-26T19:23:30.385Z,82.50
2018-04-26T19:25:57.990Z,81.70
2018-04-26T19:28:26.339Z,82.70
2018-04-26T19:30:54.399Z,82.70
2018-04-26T19:33:21.987Z,82.90
2018-04-26T19:35:50.317Z,85.80
2018-04-26T19:38:17.908Z,84.80
2018-04-26T19:40:45.519Z,85.60
2018-04-26T19:43:13.871Z,85.20
2018-04-26T19:45:41.468Z,85.30
2018-04-26T19:48:09.806Z,84.30
2018-04-26T19:50:37.401Z,84.30
2018-04-26T19:53:05.002Z,85.70
2018-04-26T19:55:32.596Z,85.20
2018-04-26T19:58:00.192Z,85.30
2018-04-26T20:00:27.768Z,84.10
2018-04-26T20:02:55.362Z,83.40
2018-04-26T20:05:22.939Z,85.50
2018-04-26T20:07:50.529Z,85.90
2018-04-26T20:10:18.108Z,88.50
2018-04-26T20:12:45.682Z,86.40
2018-04-26T20:15:13.247Z,87.80
2018-04-26T20:17:40.830Z,90.00
2018-04-26T20:20:09.168Z,90.60
2018-04-26T20:22:36.745Z,90.50
2018-04-26T20:25:04.335Z,90.20
2018-04-26T20:27:31.917Z,90.00
2018-04-26T20:29:59.522Z,90.80
2018-04-26T20:32:27.094Z,91.90
2018-04-26T20:34:54.698Z,91.80
2018-04-26T20:37:22.324Z,91.60
2018-04-26T20:39:49.936Z,92.40
2018-04-26T20:42:18.281Z,92.20
2018-04-26T20:44:48.705Z,92.20
2018-04-26T20:47:16.347Z,92.10
2018-04-26T20:49:44.015Z,92.60
2018-04-26T20:52:11.663Z,93.00
2018-04-26T20:54:39.261Z,92.80
2018-04-26T20:57:06.814Z,92.50
2018-04-26T20:59:34.435Z,91.90
2018-04-26T21:02:02.056Z,92.90
2018-04-26T21:04:29.668Z,92.40
2018-04-26T21:06:58.045Z,93.50
2018-04-26T21:09:25.724Z,93.50
2018-04-26T21:11:53.357Z,94.00
2018-04-26T21:14:20.985Z,94.50
2018-04-26T21:16:48.613Z,95.20
2018-04-26T21:19:16.239Z,95.60
2018-04-26T21:21:43.859Z,95.70
2018-04-26T21:24:12.236Z,96.10
2018-04-26T21:26:39.837Z,96.10
2018-04-26T21:29:07.481Z,96.80
2018-04-26T21:31:35.096Z,97.60
2018-04-26T21:34:02.707Z,97.60
2018-04-26T21:36:31.060Z,98.20
2018-04-26T21:38:58.665Z,98.20
2018-04-26T21:41:26.270Z,98.50
2018-04-26T21:43:54.663Z,98.70
2018-04-26T21:46:22.293Z,98.70
2018-04-26T21:48:49.960Z,98.90
2018-04-26T21:51:23.144Z,99.20
2018-04-26T21:53:56.461Z,99.50
2018-04-26T21:56:29.638Z,99.90
2018-04-26T21:59:02.874Z,99.80
2018-04-26T22:01:36.085Z,99.90
2018-04-26T22:04:22.271Z,99.90
2018-04-26T22:06:49.909Z,99.90
2018-04-26T22:09:17.505Z,99.90
2018-04-26T22:11:45.125Z,99.90
2018-04-26T22:14:12.738Z,99.90
2018-04-26T22:16:40.333Z,99.90
2018-04-26T22:19:07.940Z,99.90
2018-04-26T22:21:35.580Z,99.90
2018-04-26T22:24:03.184Z,99.90
2018-04-26T22:26:30.793Z,99.90
2018-04-26T22:28:58.483Z,99.90
2018-04-26T22:31:26.174Z,99.90
2018-04-26T22:33:53.788Z,99.90
2018-04-26T22:36:21.380Z,99.90
2018-04-26T22:38:48.992Z,99.90
2018-04-26T22:41:17.368Z,99.90
2018-04-26T22:43:44.984Z,99.90
2018-04-26T22:46:12.576Z,99.90
2018-04-26T22:48:40.178Z,99.90
2018-04-26T22:51:07.881Z,99.90
2018-04-26T22:53:35.479Z,99.90
2018-04-26T22:56:03.960Z,99.90
2018-04-26T22:58:31.581Z,99.90
2018-04-26T23:00:59.195Z,99.90
2018-04-26T23:03:26.796Z,99.90
2018-04-26T23:05:55.179Z,99.90
2018-04-26T23:08:22.771Z,99.90
2018-04-26T23:10:50.905Z,99.90
2018-04-26T23:13:18.519Z,99.90
2018-04-26T23:15:46.120Z,99.90
2018-04-26T23:18:13.733Z,99.90
2018-04-26T23:20:42.129Z,99.90
2018-04-26T23:23:09.742Z,99.90
2018-04-26T23:25:37.386Z,99.90
2018-04-26T23:28:04.980Z,99.90
2018-04-26T23:30:33.376Z,99.90
2018-04-26T23:33:00.976Z,99.90
2018-04-26T23:35:28.582Z,99.90
2018-04-26T23:37:56.209Z,99.90
2018-04-26T23:40:24.686Z,99.90
2018-04-26T23:42:52.292Z,99.90
2018-04-26T23:45:19.925Z,99.90
2018-04-26T23:47:47.551Z,99.90
2018-04-26T23:50:15.155Z,99.90
2018-04-26T23:52:42.761Z,99.90
2018-04-26T23:55:10.403Z,99.90
2018-04-26T23:57:38.016Z,99.90
